Time;durP1;ratioP1;P1;durP2;ratioP2;P2;SDS_P1;SDS_P2;PMS_P1;PMS_P2;Temp;Humidity;BMP_temperature;BMP_pressure;BME280_temperature;BME280_humidity;BME280_pressure;Samples;Min_cycle;Max_cycle;Signal;HPM_P1;HPM_P2
2022/08/20 00:00:35;;;;;;;1.80;1.40;;;17.60;99.90;;;;;;5111495;28;20059;-86
2022/08/20 00:03:27;;;;;;;3.55;1.60;;;17.50;99.90;;;;;;5113581;28;20071;-87
2022/08/20 00:06:19;;;;;;;3.08;1.70;;;17.50;1.00;;;;;;5095305;28;20044;-88
2022/08/20 00:09:06;;;;;;;5.63;1.80;;;17.40;1.00;;;;;;5119473;28;20036;-89
2022/08/20 00:11:56;;;;;;;2.92;1.90;;;17.40;55.60;;;;;;5125483;28;20035;-88
2022/08/20 00:14:44;;;;;;;2.60;1.90;;;17.40;99.90;;;;;;5117736;28;20143;-87
2022/08/20 00:17:40;;;;;;;2.63;1.83;;;17.30;99.90;;;;;;5110499;28;20043;-89
2022/08/20 00:20:35;;;;;;;2.30;1.65;;;17.30;99.90;;;;;;5112281;28;20417;-88
2022/08/20 00:23:24;;;;;;;1.60;1.50;;;17.30;99.90;;;;;;5101796;28;20039;-88
2022/08/20 00:26:12;;;;;;;2.10;1.70;;;17.30;1.00;;;;;;5107920;28;20055;-88
2022/08/20 00:28:59;;;;;;;1.77;1.58;;;17.40;1.00;;;;;;5107953;28;20176;-91
2022/08/20 00:31:47;;;;;;;3.35;1.58;;;17.30;1.00;;;;;;5104177;28;20044;-89
2022/08/20 00:34:34;;;;;;;2.25;1.80;;;17.40;1.00;;;;;;5120443;28;20487;-90
2022/08/20 00:37:22;;;;;;;2.00;1.70;;;17.40;99.90;;;;;;5115749;28;20063;-89
2022/08/20 00:40:14;;;;;;;2.60;1.60;;;17.40;99.90;;;;;;5111724;28;20075;-88
2022/08/20 00:43:24;;;;;;;2.60;1.70;;;17.50;99.90;;;;;;5122897;27;20044;-88
2022/08/20 00:46:20;;;;;;;1.60;1.50;;;17.60;99.90;;;;;;5126229;28;20043;-88
2022/08/20 00:49:16;;;;;;;5.75;1.95;;;17.60;26.20;;;;;;5136115;28;20065;-87
2022/08/20 00:52:16;;;;;;;3.50;1.80;;;17.60;1.00;;;;;;5107453;28;20136;-90
2022/08/20 00:55:05;;;;;;;1.77;1.63;;;17.70;1.00;;;;;;5124876;28;20052;-88
2022/08/20 00:58:08;;;;;;;2.00;1.80;;;17.70;99.90;;;;;;5128866;28;20047;-89
2022/08/20 01:00:56;;;;;;;1.75;1.65;;;17.70;99.90;;;;;;5105768;28;20048;-88
2022/08/20 01:03:43;;;;;;;3.92;1.70;;;17.70;99.90;;;;;;5105576;28;20052;-90
2022/08/20 01:06:31;;;;;;;1.73;1.60;;;17.70;99.90;;;;;;5105984;27;20051;-89
2022/08/20 01:09:18;;;;;;;2.42;1.67;;;17.70;99.90;;;;;;5109507;28;20044;-89
2022/08/20 01:12:28;;;;;;;4.80;1.83;;;17.60;1.00;;;;;;5114856;27;20036;-88
2022/08/20 01:15:20;;;;;;;2.38;1.90;;;17.60;1.00;;;;;;5113575;28;20055;-90
2022/08/20 01:18:23;;;;;;;2.00;1.80;;;17.50;15.60;;;;;;5108149;28;20103;-91
2022/08/20 01:21:11;;;;;;;3.28;1.50;;;17.50;99.90;;;;;;5107593;28;20126;-86
2022/08/20 01:24:15;;;;;;;3.85;2.00;;;17.40;99.90;;;;;;5135999;28;20084;-88
2022/08/20 01:27:05;;;;;;;3.60;1.80;;;17.50;99.90;;;;;;5117143;28;20035;-87
2022/08/20 01:29:55;;;;;;;3.33;1.85;;;17.50;99.90;;;;;;5120608;28;20040;-89
2022/08/20 01:32:42;;;;;;;2.17;1.60;;;17.60;99.90;;;;;;5128490;27;20035;-88
2022/08/20 01:35:35;;;;;;;5.20;3.88;;;17.60;99.90;;;;;;5093271;28;20094;-88
2022/08/20 01:38:24;;;;;;;2.95;1.85;;;17.60;99.90;;;;;;5095650;28;20385;-90
2022/08/20 01:41:23;;;;;;;1.90;1.70;;;17.70;1.00;;;;;;5117035;27;20092;-89
2022/08/20 01:44:14;;;;;;;2.38;1.92;;;17.70;1.00;;;;;;5108043;27;20048;-88
2022/08/20 01:47:23;;;;;;;3.83;1.80;;;17.80;1.00;;;;;;5117742;27;20032;-89
2022/08/20 01:50:24;;;;;;;2.10;1.88;;;17.80;1.00;;;;;;5112791;28;20109;-88
2022/08/20 01:53:29;;;;;;;1.55;1.40;;;17.80;99.90;;;;;;5094644;28;20497;-89
2022/08/20 01:56:21;;;;;;;2.88;1.63;;;17.80;99.90;;;;;;5109085;28;20058;-89
2022/08/20 01:59:13;;;;;;;3.10;2.00;;;17.80;99.90;;;;;;5116532;27;20047;-90
2022/08/20 02:02:01;;;;;;;1.90;1.50;;;17.90;99.90;;;;;;5114726;27;20176;-89
2022/08/20 02:04:50;;;;;;;3.65;1.90;;;17.90;99.90;;;;;;5112415;28;20036;-89
2022/08/20 02:07:39;;;;;;;3.60;1.90;;;17.90;99.90;;;;;;5111928;28;20048;-88
2022/08/20 02:10:30;;;;;;;2.08;1.67;;;17.90;99.90;;;;;;5109576;28;20124;-90
2022/08/20 02:13:18;;;;;;;2.15;1.95;;;17.90;99.90;;;;;;5129377;27;20043;-90
2022/08/20 02:16:08;;;;;;;2.72;1.83;;;17.90;99.90;;;;;;5128174;27;20043;-88
2022/08/20 02:19:05;;;;;;;3.25;1.73;;;18.00;99.90;;;;;;5122072;28;20043;-90
2022/08/20 02:21:57;;;;;;;2.03;1.73;;;18.00;99.90;;;;;;5120913;27;20131;-90
2022/08/20 02:24:44;;;;;;;2.13;1.63;;;17.90;99.90;;;;;;5125650;28;20039;-83
2022/08/20 02:27:32;;;;;;;2.10;1.90;;;18.00;99.90;;;;;;5136767;28;20054;-82
2022/08/20 02:30:26;;;;;;;2.25;1.80;;;18.00;99.90;;;;;;5136959;28;20043;-89
2022/08/20 02:33:18;;;;;;;2.90;2.05;;;17.90;99.90;;;;;;5116544;28;20044;-89
2022/08/20 02:36:15;;;;;;;3.03;1.98;;;17.90;99.90;;;;;;5096910;28;20059;-89
2022/08/20 02:39:07;;;;;;;2.42;1.92;;;18.00;99.90;;;;;;5129858;28;20048;-89
2022/08/20 02:41:54;;;;;;;3.17;1.75;;;18.00;99.90;;;;;;5116131;28;20475;-89
2022/08/20 02:44:42;;;;;;;7.30;4.80;;;18.00;99.90;;;;;;5109839;27;20098;-88
2022/08/20 02:47:31;;;;;;;3.92;2.53;;;18.00;99.90;;;;;;5105417;27;20421;-90
2022/08/20 02:50:21;;;;;;;3.60;2.17;;;18.10;98.50;;;;;;5116987;27;20525;-90
2022/08/20 02:53:08;;;;;;;4.22;2.10;;;18.00;50.00;;;;;;5099738;28;20479;-89
2022/08/20 02:55:55;;;;;;;1.80;1.70;;;18.10;23.50;;;;;;5110184;28;20075;-88
2022/08/20 02:58:44;;;;;;;2.55;2.00;;;18.10;1.00;;;;;;5093970;28;20046;-87
2022/08/20 03:01:31;;;;;;;3.78;2.28;;;18.10;1.00;;;;;;5101360;28;20145;-88
2022/08/20 03:04:19;;;;;;;2.50;2.30;;;18.10;1.00;;;;;;5092573;28;20097;-87
2022/08/20 03:07:10;;;;;;;3.00;2.03;;;18.10;1.00;;;;;;5116106;28;20097;-88
2022/08/20 03:09:58;;;;;;;2.55;2.35;;;18.10;1.00;;;;;;5116953;28;20052;-90
2022/08/20 03:12:45;;;;;;;3.63;2.15;;;18.10;1.00;;;;;;5100061;28;20067;-90
2022/08/20 03:15:43;;;;;;;2.60;2.38;;;18.00;1.00;;;;;;5114317;28;20390;-88
2022/08/20 03:18:36;;;;;;;2.45;2.25;;;18.00;11.40;;;;;;5094160;28;20052;-88
2022/08/20 03:21:23;;;;;;;5.18;2.80;;;17.90;75.80;;;;;;5114373;28;20122;-88
2022/08/20 03:24:10;;;;;;;4.00;2.67;;;17.80;99.90;;;;;;5114314;28;20047;-89
2022/08/20 03:27:00;;;;;;;3.90;2.92;;;17.70;99.90;;;;;;5110678;28;20051;-88
2022/08/20 03:29:47;;;;;;;15.02;8.18;;;17.70;99.90;;;;;;5119787;27;20044;-88
2022/08/20 03:32:35;;;;;;;5.03;2.95;;;17.60;1.00;;;;;;5111793;28;20051;-89
2022/08/20 03:35:25;;;;;;;3.88;3.00;;;17.60;1.00;;;;;;5123567;27;20143;-90
2022/08/20 03:38:17;;;;;;;3.22;2.78;;;17.60;99.90;;;;;;5100086;27;20352;-89
2022/08/20 03:41:19;;;;;;;3.20;2.85;;;17.50;99.90;;;;;;5114235;28;20048;-89
2022/08/20 03:44:08;;;;;;;3.15;2.85;;;17.60;99.90;;;;;;5119381;28;20113;-90
2022/08/20 03:46:56;;;;;;;5.63;2.83;;;17.50;99.90;;;;;;5126141;28;20066;-90
2022/08/20 03:49:44;;;;;;;3.50;2.97;;;17.60;99.90;;;;;;5137309;28;20075;-88
2022/08/20 03:52:34;;;;;;;4.15;2.95;;;17.60;1.00;;;;;;5136802;28;20073;-88
2022/08/20 03:55:22;;;;;;;5.32;3.10;;;17.60;99.90;;;;;;5136595;28;20076;-85
2022/08/20 03:58:10;;;;;;;6.03;4.70;;;17.60;99.90;;;;;;5134386;28;20032;-84
2022/08/20 04:07:41;;;;;;;3.72;3.05;;;17.60;1.00;;;;;;5116763;28;20077;-88
2022/08/20 04:10:31;;;;;;;3.28;2.97;;;17.50;1.00;;;;;;5141304;28;20055;-90
2022/08/20 04:13:21;;;;;;;4.47;2.80;;;17.50;93.10;;;;;;5141282;28;20069;-88
2022/08/20 04:16:12;;;;;;;5.85;3.03;;;17.50;99.90;;;;;;5150432;28;20082;-88
2022/08/20 04:19:02;;;;;;;3.63;2.95;;;17.50;99.90;;;;;;5110970;28;20119;-89
2022/08/20 04:21:49;;;;;;;4.70;3.42;;;17.60;39.00;;;;;;5100526;28;20080;-87
2022/08/20 04:24:41;;;;;;;4.35;3.33;;;17.60;94.90;;;;;;5117265;28;20454;-88
2022/08/20 04:27:31;;;;;;;3.67;2.75;;;17.50;52.90;;;;;;5093309;28;20146;-88
2022/08/20 04:30:24;;;;;;;3.17;2.83;;;17.60;99.90;;;;;;5116520;28;20040;-89
2022/08/20 04:33:15;;;;;;;4.03;3.47;;;17.60;64.10;;;;;;5095897;28;20105;-88
2022/08/20 04:36:05;;;;;;;3.70;3.08;;;17.60;27.70;;;;;;5091664;28;20083;-88
2022/08/20 04:38:52;;;;;;;6.25;3.03;;;17.60;56.10;;;;;;5105746;28;20105;-89
2022/08/20 04:41:43;;;;;;;6.30;3.10;;;17.60;1.00;;;;;;5101028;28;20466;-86
2022/08/20 04:44:30;;;;;;;6.78;3.28;;;17.60;1.00;;;;;;5113876;28;20046;-89
2022/08/20 04:47:27;;;;;;;7.00;3.22;;;17.60;1.00;;;;;;5094997;28;20047;-87
2022/08/20 04:50:22;;;;;;;5.43;3.45;;;17.60;1.00;;;;;;5107896;27;20169;-89
2022/08/20 04:53:11;;;;;;;3.78;2.85;;;17.60;1.00;;;;;;5104618;28;20044;-88
2022/08/20 04:56:00;;;;;;;4.13;3.15;;;17.60;1.00;;;;;;5116372;28;20104;-88
2022/08/20 04:58:52;;;;;;;6.32;3.03;;;17.60;1.00;;;;;;5115876;28;20039;-89
2022/08/20 05:01:41;;;;;;;4.03;3.15;;;17.70;1.00;;;;;;5105318;28;20100;-88
2022/08/20 05:04:31;;;;;;;4.25;3.30;;;17.70;1.00;;;;;;5113067;28;20046;-86
2022/08/20 05:07:19;;;;;;;3.70;3.28;;;17.70;1.00;;;;;;5094470;28;20039;-89
2022/08/20 05:10:10;;;;;;;7.18;4.60;;;17.70;1.00;;;;;;5101450;27;20101;-89
2022/08/20 05:12:57;;;;;;;5.68;4.03;;;17.70;1.00;;;;;;5109282;28;20430;-88
2022/08/20 05:15:46;;;;;;;4.95;4.20;;;17.70;1.00;;;;;;5107702;28;20055;-90
2022/08/20 05:18:33;;;;;;;4.45;3.45;;;17.70;90.10;;;;;;5118855;27;20059;-89
2022/08/20 05:21:21;;;;;;;4.93;3.63;;;17.60;99.90;;;;;;5119455;27;20047;-89
2022/08/20 05:24:11;;;;;;;4.78;3.72;;;17.70;99.90;;;;;;5112724;28;20127;-88
2022/08/20 05:26:59;;;;;;;6.28;4.07;;;17.60;99.90;;;;;;5113280;27;20058;-89
2022/08/20 05:29:52;;;;;;;6.22;3.78;;;17.60;7.80;;;;;;5120740;27;20428;-88
2022/08/20 05:32:40;;;;;;;4.93;3.90;;;17.60;99.90;;;;;;5118972;27;20426;-88
2022/08/20 05:35:37;;;;;;;5.50;3.80;;;17.60;99.90;;;;;;5105333;27;20062;-88
2022/08/20 05:38:27;;;;;;;9.25;4.07;;;17.60;1.00;;;;;;5099888;28;20059;-87
2022/08/20 05:41:14;;;;;;;6.88;4.47;;;17.60;1.00;;;;;;5116029;27;20055;-86
2022/08/20 05:44:17;;;;;;;7.10;4.75;;;17.60;1.00;;;;;;5120008;27;20043;-86
2022/08/20 05:47:05;;;;;;;6.93;4.30;;;17.60;1.00;;;;;;5112397;28;20039;-88
2022/08/20 05:49:57;;;;;;;5.57;4.30;;;17.60;1.00;;;;;;5125497;28;20044;-87
2022/08/20 05:52:44;;;;;;;6.05;5.05;;;17.70;99.90;;;;;;5114346;28;20052;-88
2022/08/20 05:55:32;;;;;;;4.80;4.30;;;17.70;99.90;;;;;;5124355;28;20109;-85
2022/08/20 05:58:23;;;;;;;4.47;3.70;;;17.70;99.90;;;;;;5107446;28;20052;-85
2022/08/20 06:01:10;;;;;;;5.07;4.53;;;17.80;85.60;;;;;;5098291;28;20056;-85
2022/08/20 06:07:06;;;;;;;4.43;3.85;;;17.90;99.90;;;;;;5116161;27;20056;-88
2022/08/20 06:09:55;;;;;;;7.40;4.40;;;17.90;99.20;;;;;;5112732;28;20449;-87
2022/08/20 06:12:52;;;;;;;7.15;4.15;;;18.00;1.00;;;;;;5111659;27;20401;-83
2022/08/20 06:15:41;;;;;;;4.80;3.78;;;18.10;99.90;;;;;;5108884;28;20048;-89
2022/08/20 06:18:53;;;;;;;7.57;3.85;;;18.20;99.90;;;;;;5094463;28;20044;-87
2022/08/20 06:21:46;;;;;;;4.70;4.00;;;18.30;1.00;;;;;;5106366;28;20043;-86
2022/08/20 06:24:33;;;;;;;5.28;3.55;;;18.30;1.00;;;;;;5101124;27;20048;-88
2022/08/20 06:27:21;;;;;;;3.95;3.22;;;18.30;1.00;;;;;;5101690;27;20044;-87
2022/08/20 06:30:11;;;;;;;5.28;3.45;;;18.40;1.00;;;;;;5127732;27;20040;-89
2022/08/20 06:32:58;;;;;;;5.28;3.80;;;18.40;1.00;;;;;;5128967;27;20491;-88
2022/08/20 06:35:46;;;;;;;3.80;3.33;;;18.40;1.00;;;;;;5105646;28;20059;-88
2022/08/20 06:38:34;;;;;;;3.88;3.47;;;18.60;1.00;;;;;;5121413;27;20058;-90
2022/08/20 06:41:24;;;;;;;3.72;3.38;;;18.60;99.90;;;;;;5111860;27;20054;-88
2022/08/20 06:44:23;;;;;;;5.13;3.47;;;18.80;99.90;;;;;;5108095;27;20143;-89
2022/08/20 06:47:13;;;;;;;4.22;3.83;;;18.90;99.90;;;;;;5116155;27;20040;-89
2022/08/20 06:50:06;;;;;;;4.33;3.40;;;19.00;99.90;;;;;;5097097;28;20047;-88
2022/08/20 06:52:53;;;;;;;4.57;3.60;;;19.20;99.90;;;;;;5091551;28;20274;-89
2022/08/20 06:55:44;;;;;;;4.72;3.53;;;19.30;13.60;;;;;;5093492;28;20055;-90
2022/08/20 06:58:35;;;;;;;3.53;3.22;;;19.30;1.00;;;;;;5109751;27;20039;-88
2022/08/20 07:01:24;;;;;;;4.90;3.20;;;19.40;1.00;;;;;;5106820;27;20070;-90
2022/08/20 07:04:12;;;;;;;4.25;3.08;;;19.50;1.00;;;;;;5110285;28;20039;-88
2022/08/20 07:07:03;;;;;;;4.25;3.15;;;19.60;1.00;;;;;;5107201;28;20044;-88
2022/08/20 07:10:01;;;;;;;4.90;2.97;;;19.70;1.00;;;;;;5106279;27;20051;-89
2022/08/20 07:12:49;;;;;;;3.97;3.53;;;19.80;99.90;;;;;;5104069;28;20480;-89
2022/08/20 07:15:37;;;;;;;5.38;3.85;;;19.70;1.00;;;;;;5103737;28;20060;-88
2022/08/20 07:18:27;;;;;;;3.92;3.47;;;19.40;1.00;;;;;;5100313;27;20044;-89
2022/08/20 07:21:19;;;;;;;4.43;3.58;;;19.30;1.00;;;;;;5088832;27;20344;-89
2022/08/20 07:24:08;;;;;;;5.28;4.05;;;19.20;5.50;;;;;;5103119;28;20102;-88
2022/08/20 07:26:58;;;;;;;4.10;3.70;;;19.30;4.60;;;;;;5122805;28;20044;-89
2022/08/20 07:32:51;;;;;;;5.65;4.15;;;19.50;1.00;;;;;;5119638;28;20036;-86
2022/08/20 07:35:40;;;;;;;5.82;3.80;;;19.60;1.00;;;;;;5121127;28;20055;-88
2022/08/20 07:38:32;;;;;;;4.03;3.47;;;19.70;1.00;;;;;;5123791;27;20039;-88
2022/08/20 07:41:22;;;;;;;9.30;4.30;;;19.70;99.90;;;;;;5120109;27;20032;-86
2022/08/20 07:44:09;;;;;;;5.15;4.20;;;19.70;99.90;;;;;;5084839;28;20095;-87
2022/08/20 07:46:58;;;;;;;6.72;3.78;;;19.70;99.90;;;;;;5080032;28;20114;-88
2022/08/20 07:49:50;;;;;;;4.00;3.67;;;19.70;99.90;;;;;;5101362;28;20145;-89
2022/08/20 07:52:37;;;;;;;6.32;3.50;;;19.80;99.90;;;;;;5086217;28;20094;-88
2022/08/20 07:55:25;;;;;;;5.82;4.25;;;19.90;99.90;;;;;;5098801;28;20374;-89
2022/08/20 07:58:18;;;;;;;4.53;4.13;;;19.90;99.90;;;;;;5122378;28;20050;-87
2022/08/20 08:01:06;;;;;;;4.93;3.67;;;20.00;99.90;;;;;;5116013;28;20107;-88
2022/08/20 08:03:57;;;;;;;4.50;3.83;;;20.20;99.90;;;;;;5098634;28;20128;-88
2022/08/20 08:06:47;;;;;;;6.82;3.75;;;20.50;99.90;;;;;;5114648;28;20043;-88
2022/08/20 08:09:37;;;;;;;8.07;3.90;;;20.50;99.90;;;;;;5113851;28;20044;-88
2022/08/20 08:12:35;;;;;;;3.95;3.25;;;20.80;99.90;;;;;;5113594;28;20040;-89
2022/08/20 08:15:30;;;;;;;5.55;3.65;;;21.00;99.90;;;;;;5097226;28;20060;-90
2022/08/20 08:18:23;;;;;;;5.80;3.63;;;21.10;99.90;;;;;;5093457;28;20040;-86
2022/08/20 08:21:18;;;;;;;5.15;3.92;;;21.30;72.70;;;;;;5113309;27;20044;-88
2022/08/20 08:24:07;;;;;;;4.93;3.30;;;21.50;23.00;;;;;;5106401;28;20356;-90
2022/08/20 08:26:54;;;;;;;5.82;3.80;;;21.60;1.00;;;;;;5111677;28;20055;-89
2022/08/20 08:29:42;;;;;;;4.85;3.60;;;22.00;1.00;;;;;;5094230;27;20043;-87
2022/08/20 08:36:08;;;;;;;6.95;3.65;;;21.80;1.00;;;;;;5115092;28;20035;-89
2022/08/20 08:38:56;;;;;;;3.65;3.30;;;21.80;1.00;;;;;;5111102;27;20087;-91
2022/08/20 08:41:48;;;;;;;6.22;3.17;;;22.00;1.00;;;;;;5107204;28;20047;-87
2022/08/20 08:44:38;;;;;;;;;;;22.40;1.00;;;;;;5089546;28;20051;-89
2022/08/20 08:47:30;;;;;;;3.92;2.83;;;22.90;99.90;;;;;;5106005;27;19919;-88
2022/08/20 08:50:32;;;;;;;3.42;2.80;;;23.30;99.90;;;;;;5114194;27;20116;-87
2022/08/20 08:53:45;;;;;;;3.22;2.55;;;23.20;99.90;;;;;;5102724;27;20063;-86
2022/08/20 08:56:34;;;;;;;4.80;2.80;;;23.00;99.90;;;;;;5106100;28;20076;-88
2022/08/20 08:59:22;;;;;;;3.53;2.60;;;23.20;99.90;;;;;;5107946;27;20101;-88
2022/08/20 09:02:27;;;;;;;2.63;2.28;;;23.40;99.90;;;;;;5102992;28;20044;-89
2022/08/20 09:05:19;;;;;;;2.83;2.53;;;23.50;99.90;;;;;;5108589;28;20048;-88
2022/08/20 09:08:14;;;;;;;3.17;2.88;;;23.40;99.90;;;;;;5105807;28;20048;-89
2022/08/20 09:11:07;;;;;;;3.25;2.40;;;23.60;99.90;;;;;;5111128;28;20042;-89
2022/08/20 09:13:57;;;;;;;4.95;2.70;;;24.20;99.90;;;;;;5101831;28;20044;-89
2022/08/20 09:16:47;;;;;;;4.55;2.60;;;24.80;99.90;;;;;;5108516;28;20138;-89
2022/08/20 09:19:39;;;;;;;2.40;2.20;;;24.70;99.90;;;;;;5113853;28;20043;-87
2022/08/20 09:22:35;;;;;;;3.03;2.28;;;24.60;99.90;;;;;;5104796;28;20052;-87
2022/08/20 09:25:24;;;;;;;2.50;2.30;;;24.40;99.90;;;;;;5108244;28;20105;-88
2022/08/20 09:28:12;;;;;;;4.30;2.72;;;24.70;99.90;;;;;;5116490;28;20048;-88
2022/08/20 09:31:00;;;;;;;3.08;2.53;;;24.80;90.70;;;;;;5085321;28;20063;-88
2022/08/20 09:33:47;;;;;;;2.13;2.00;;;24.20;84.60;;;;;;5112450;28;20047;-88
2022/08/20 09:36:36;;;;;;;2.75;2.45;;;23.00;99.90;;;;;;5094958;28;20109;-87
2022/08/20 09:39:23;;;;;;;4.55;3.10;;;22.60;99.90;;;;;;5110772;28;20052;-86
2022/08/20 09:42:12;;;;;;;3.75;2.90;;;22.30;99.90;;;;;;5101073;28;20153;-88
2022/08/20 09:45:00;;;;;;;2.83;2.55;;;22.20;99.90;;;;;;5112488;28;20075;-89
2022/08/20 09:47:48;;;;;;;2.75;2.55;;;22.40;99.90;;;;;;5108167;27;20077;-89
2022/08/20 09:50:55;;;;;;;4.00;1.90;;;22.60;99.90;;;;;;5104665;27;20036;-88
2022/08/20 09:53:47;;;;;;;3.28;1.60;;;23.00;99.90;;;;;;5115254;28;20055;-89
2022/08/20 09:56:37;;;;;;;2.25;1.90;;;23.30;99.90;;;;;;5112122;28;20096;-88
2022/08/20 09:59:25;;;;;;;1.50;1.40;;;23.50;99.90;;;;;;5100709;27;20079;-89
2022/08/20 10:02:12;;;;;;;1.88;1.50;;;23.40;94.40;;;;;;5112201;27;20067;-89
2022/08/20 10:05:00;;;;;;;1.95;1.60;;;23.30;90.50;;;;;;5105128;28;20043;-88
2022/08/20 10:07:47;;;;;;;1.75;1.63;;;23.20;87.10;;;;;;5110864;28;20108;-90
2022/08/20 10:10:35;;;;;;;3.60;1.70;;;23.10;87.00;;;;;;5117179;27;20047;-88
2022/08/20 10:13:24;;;;;;;2.30;1.70;;;23.10;90.50;;;;;;5116874;28;20102;-90
2022/08/20 10:16:12;;;;;;;1.95;1.80;;;22.90;92.50;;;;;;5113760;28;20139;-88
2022/08/20 10:19:04;;;;;;;1.85;1.42;;;22.80;93.70;;;;;;5119253;28;20043;-88
2022/08/20 10:21:57;;;;;;;5.72;1.40;;;22.60;94.20;;;;;;5095937;28;20416;-88
2022/08/20 10:24:45;;;;;;;1.77;1.40;;;22.30;96.30;;;;;;5112888;28;20066;-88
2022/08/20 10:27:32;;;;;;;1.67;1.30;;;22.10;99.90;;;;;;5127276;28;20138;-86
2022/08/20 10:30:19;;;;;;;1.60;1.50;;;21.90;99.90;;;;;;5129454;28;20054;-85
2022/08/20 10:33:07;;;;;;;1.85;1.25;;;21.80;99.90;;;;;;5125716;28;20043;-87
2022/08/20 10:35:54;;;;;;;1.17;1.10;;;21.80;99.90;;;;;;5122405;28;20040;-85
2022/08/20 10:38:47;;;;;;;1.52;0.98;;;21.70;99.90;;;;;;5119169;28;20040;-85
2022/08/20 10:41:37;;;;;;;1.60;0.82;;;21.50;99.90;;;;;;5130461;27;20040;-86
2022/08/20 10:44:25;;;;;;;1.08;0.70;;;21.50;99.90;;;;;;5100933;28;20039;-87
2022/08/20 10:47:26;;;;;;;0.73;0.60;;;21.40;99.90;;;;;;5119363;28;20040;-88
2022/08/20 10:50:18;;;;;;;1.42;0.63;;;21.50;99.90;;;;;;5114132;27;20044;-87
2022/08/20 10:53:05;;;;;;;2.53;0.73;;;21.70;99.90;;;;;;5118902;28;20047;-87
2022/08/20 10:55:54;;;;;;;2.05;0.60;;;21.90;99.90;;;;;;5109514;28;20104;-89
2022/08/20 10:58:42;;;;;;;0.60;0.60;;;21.90;99.90;;;;;;5115008;28;20043;-86
2022/08/20 11:01:32;;;;;;;0.50;0.50;;;21.80;99.90;;;;;;5098889;28;20044;-86
2022/08/20 11:04:22;;;;;;;0.70;0.70;;;21.70;99.90;;;;;;5108778;28;20043;-87
2022/08/20 11:07:14;;;;;;;1.55;0.90;;;21.50;99.90;;;;;;5120966;28;20036;-88
2022/08/20 11:10:03;;;;;;;1.30;0.90;;;21.40;99.90;;;;;;5113781;28;20048;-86
2022/08/20 11:12:50;;;;;;;1.17;0.80;;;21.30;99.90;;;;;;5106066;28;20436;-87
2022/08/20 11:15:42;;;;;;;0.77;0.77;;;21.10;99.90;;;;;;5117774;28;20055;-86
2022/08/20 11:18:30;;;;;;;0.40;0.30;;;21.00;99.90;;;;;;5126131;28;20043;-87
2022/08/20 11:21:17;;;;;;;0.93;0.75;;;21.10;99.90;;;;;;5106055;28;20444;-89
2022/08/20 11:24:04;;;;;;;0.80;0.80;;;21.10;99.90;;;;;;5109960;28;20040;-90
2022/08/20 11:26:52;;;;;;;1.10;0.73;;;21.10;99.90;;;;;;5116446;28;20044;-89
2022/08/20 11:29:39;;;;;;;0.57;0.52;;;21.00;99.90;;;;;;5104447;28;20051;-89
2022/08/20 11:32:28;;;;;;;2.35;1.02;;;20.80;99.90;;;;;;5100837;28;20177;-90
2022/08/20 11:35:16;;;;;;;1.45;1.20;;;20.70;99.90;;;;;;5114816;28;20039;-88
2022/08/20 11:38:23;;;;;;;3.67;1.27;;;20.70;99.90;;;;;;5101742;28;20143;-89
2022/08/20 11:41:15;;;;;;;1.42;1.00;;;20.60;99.90;;;;;;5095286;27;20062;-89
2022/08/20 11:44:03;;;;;;;1.42;1.33;;;20.70;99.90;;;;;;5114060;28;20051;-88
2022/08/20 11:47:09;;;;;;;0.93;0.70;;;20.60;99.90;;;;;;5106765;28;20032;-88
2022/08/20 11:50:05;;;;;;;0.80;0.75;;;20.60;99.90;;;;;;5105746;28;20044;-89
2022/08/20 11:52:54;;;;;;;0.68;0.60;;;20.60;99.90;;;;;;5112711;28;20454;-90
2022/08/20 11:55:42;;;;;;;1.75;0.40;;;20.60;99.90;;;;;;5094851;28;20054;-86
2022/08/20 11:58:32;;;;;;;0.60;0.43;;;20.60;99.90;;;;;;5110169;28;20059;-88
2022/08/20 12:01:19;;;;;;;0.32;0.22;;;20.50;99.90;;;;;;5116645;28;20043;-88
2022/08/20 12:04:07;;;;;;;0.30;0.30;;;20.70;99.90;;;;;;5121997;28;20054;-89
2022/08/20 12:06:54;;;;;;;0.50;0.50;;;20.90;99.90;;;;;;5085600;28;20044;-89
2022/08/20 12:09:42;;;;;;;1.00;0.55;;;20.80;99.90;;;;;;5109302;28;20051;-89
2022/08/20 12:12:38;;;;;;;0.55;0.40;;;20.80;99.90;;;;;;5106077;28;20181;-90
2022/08/20 12:15:28;;;;;;;3.20;0.43;;;21.00;99.90;;;;;;5097946;28;20039;-88
2022/08/20 12:18:15;;;;;;;1.95;0.43;;;21.00;99.90;;;;;;5114229;28;20374;-88
2022/08/20 12:21:05;;;;;;;1.27;0.57;;;21.10;99.90;;;;;;5113813;28;20136;-89
2022/08/20 12:23:53;;;;;;;0.30;0.30;;;21.10;99.90;;;;;;5099978;28;20048;-90
2022/08/20 12:26:40;;;;;;;11.43;3.08;;;21.30;99.90;;;;;;5106804;28;20035;-89
2022/08/20 12:29:29;;;;;;;1.40;0.70;;;21.60;99.90;;;;;;5089231;28;20053;-90
2022/08/20 12:32:16;;;;;;;0.68;0.50;;;21.70;99.90;;;;;;5108755;28;20047;-91
2022/08/20 12:35:05;;;;;;;1.15;0.50;;;21.60;99.90;;;;;;5104696;28;20039;-90
2022/08/20 12:37:53;;;;;;;1.10;0.70;;;21.60;99.90;;;;;;5111508;28;20066;-87
2022/08/20 12:40:40;;;;;;;1.30;0.60;;;21.90;99.90;;;;;;5110316;28;20039;-87
2022/08/20 12:43:27;;;;;;;0.63;0.60;;;22.30;99.90;;;;;;5118051;28;20105;-89
2022/08/20 12:46:14;;;;;;;2.10;0.90;;;22.70;99.90;;;;;;5111862;28;20044;-88
2022/08/20 12:49:06;;;;;;;0.60;0.50;;;23.30;99.90;;;;;;5108250;28;20039;-89
2022/08/20 12:51:54;;;;;;;0.70;0.45;;;23.90;99.90;;;;;;5111113;28;20044;-89
2022/08/20 12:54:44;;;;;;;1.55;0.50;;;24.30;99.90;;;;;;5124922;28;20043;-90
2022/08/20 12:57:37;;;;;;;2.88;0.68;;;25.00;80.50;;;;;;5111723;28;20053;-87
2022/08/20 13:00:28;;;;;;;0.85;0.52;;;24.70;71.00;;;;;;5112602;28;20101;-88
2022/08/20 13:03:16;;;;;;;1.00;0.50;;;25.10;61.10;;;;;;5100875;28;20048;-88
2022/08/20 13:06:03;;;;;;;0.50;0.38;;;25.40;38.20;;;;;;5110539;27;20103;-88
2022/08/20 13:08:52;;;;;;;0.85;0.47;;;25.60;15.60;;;;;;5108216;28;20148;-89
2022/08/20 13:11:40;;;;;;;0.88;0.65;;;25.40;7.60;;;;;;5122660;27;20146;-88
2022/08/20 13:14:27;;;;;;;1.08;0.85;;;25.80;2.00;;;;;;5094569;28;20051;-90
2022/08/20 13:17:17;;;;;;;0.30;0.30;;;27.00;1.00;;;;;;5120023;27;20120;-89
2022/08/20 13:20:08;;;;;;;2.50;0.30;;;28.70;1.00;;;;;;5107228;28;20047;-88
2022/08/20 13:22:55;;;;;;;0.60;0.60;;;29.20;1.00;;;;;;5114659;28;20054;-89
2022/08/20 13:25:43;;;;;;;0.93;0.32;;;28.50;1.00;;;;;;5099048;28;20134;-89
2022/08/20 13:28:30;;;;;;;0.52;0.52;;;27.60;1.00;;;;;;5093161;28;20090;-90
2022/08/20 13:31:18;;;;;;;0.57;0.57;;;27.30;1.00;;;;;;5088714;28;20040;-89
2022/08/20 13:34:06;;;;;;;1.70;0.50;;;27.40;1.00;;;;;;5100026;27;20040;-89
2022/08/20 13:36:55;;;;;;;0.40;0.40;;;27.00;1.00;;;;;;5102315;28;20056;-90
2022/08/20 13:39:46;;;;;;;1.58;0.30;;;27.40;1.00;;;;;;5115580;28;20047;-90
2022/08/20 13:42:33;;;;;;;0.57;0.45;;;29.10;1.00;;;;;;5094185;28;20055;-87
2022/08/20 13:45:21;;;;;;;0.63;0.60;;;29.90;1.00;;;;;;5112637;27;20078;-86
2022/08/20 13:48:09;;;;;;;0.25;0.25;;;30.40;1.00;;;;;;5103540;28;20044;-87
2022/08/20 13:51:03;;;;;;;1.10;0.50;;;32.10;1.00;;;;;;5107191;28;20050;-89
2022/08/20 13:53:53;;;;;;;0.43;0.38;;;33.50;1.00;;;;;;5100621;27;20554;-90
2022/08/20 13:56:40;;;;;;;1.17;0.40;;;34.30;1.00;;;;;;5110313;28;20523;-91
2022/08/20 13:59:29;;;;;;;0.20;0.20;;;36.10;1.00;;;;;;5099884;27;20046;-90
2022/08/20 14:02:17;;;;;;;1.45;0.30;;;35.90;1.00;;;;;;5116404;28;20052;-90
2022/08/20 14:05:05;;;;;;;0.20;0.20;;;34.10;1.00;;;;;;5111886;28;20066;-91
2022/08/20 14:07:52;;;;;;;0.73;0.30;;;33.30;1.00;;;;;;5106942;27;20058;-90
2022/08/20 14:10:43;;;;;;;0.30;0.30;;;34.50;1.00;;;;;;5133176;27;20046;-89
2022/08/20 14:13:35;;;;;;;0.30;0.25;;;35.20;1.00;;;;;;5114412;28;20047;-91
2022/08/20 14:16:22;;;;;;;1.95;0.40;;;36.20;1.00;;;;;;5132271;28;20048;-87
2022/08/20 14:19:14;;;;;;;0.50;0.40;;;35.50;99.90;;;;;;5116918;28;20108;-90
2022/08/20 14:22:04;;;;;;;6.50;0.50;;;33.20;1.00;;;;;;5115008;28;20070;-91
2022/08/20 14:24:51;;;;;;;0.98;0.50;;;32.10;1.00;;;;;;5133950;27;20099;-90
2022/08/20 14:27:41;;;;;;;2.47;0.50;;;30.20;1.00;;;;;;5104809;28;20551;-90
2022/08/20 14:30:29;;;;;;;0.30;0.30;;;29.10;1.00;;;;;;5129165;27;20054;-89
2022/08/20 14:33:16;;;;;;;0.47;0.47;;;28.30;1.00;;;;;;5107794;28;20377;-90
2022/08/20 14:36:04;;;;;;;1.27;0.57;;;28.10;1.00;;;;;;5107654;27;20347;-89
2022/08/20 14:38:51;;;;;;;0.38;0.38;;;27.60;1.00;;;;;;5098632;28;20359;-91
2022/08/20 14:41:38;;;;;;;1.70;0.52;;;27.00;1.00;;;;;;5113770;27;20047;-90
2022/08/20 14:44:28;;;;;;;0.65;0.50;;;27.10;1.00;;;;;;5107947;27;20096;-90
2022/08/20 14:47:32;;;;;;;0.95;0.50;;;27.10;1.00;;;;;;5118825;27;20040;-89
2022/08/20 14:50:30;;;;;;;1.27;0.50;;;26.80;1.00;;;;;;5116641;28;20028;-86
2022/08/20 14:53:20;;;;;;;0.57;0.50;;;27.00;1.00;;;;;;5123876;27;20047;-89
2022/08/20 14:56:08;;;;;;;1.00;0.60;;;27.40;1.00;;;;;;5118846;27;20069;-89
2022/08/20 14:58:55;;;;;;;0.98;0.60;;;28.00;1.00;;;;;;5108397;27;20067;-82
2022/08/20 15:01:44;;;;;;;1.63;0.50;;;28.40;1.00;;;;;;5128749;28;20082;-82
2022/08/20 15:04:34;;;;;;;0.88;0.60;;;28.20;1.00;;;;;;5113492;28;20047;-84
2022/08/20 15:07:36;;;;;;;1.95;0.52;;;28.60;1.00;;;;;;5127656;28;20039;-84